Aérodrome :
LOGIN :

S'inscrire | Disclaimer

   EN    FR    IT 

 










Légende :    VFR   VFR Marginal   IFR   IFR Intensif   IFR Très Intensif
Visi : 
Plafond : 
>= 8 km
>= 3000ft
5 à 8 km
1000 à 3000 ft
1500m à 5 km
500 à 1000 ft
800 à 1500m
200 à 500 ft
< 800m
< 200 ft
Symboles :   Orages  Brouillard  Fortes neiges  Fortes précipitations  Vent > 20 kt
SIGMETs :   Divers  Orages  Givrage  Turbulence  Onde Orograph.  Cendres Volcan.







- Altitude de l'aérodrome : 102 ft
- Code IATA : EXT
- Voir les cartes d'approche


EGTE - Exeter

DERNIER METAR :
  • 182220Z 21015KT 9000 SCT016 SCT038 18/14 Q1011

METARs EXPIRÉS :
  • 182150Z 20013KT 9999 BKN015 16/13 Q1011
  • 182120Z 20012KT 9999 BKN014 18/15 Q1011
  • 182050Z 20012KT 9999 BKN017 BKN047 18/15 Q1011
  • 182020Z 20012KT 9999 BKN018 BKN049 19/16 Q1011
  • 181950Z 19013KT 9999 BKN017 BKN049 18/15 Q1011

TAF TAF EGTE
Valide du 18 à 21h jusqu'au 19 à 03h UTC


181959Z 1821/1903 20012KT 9999 SCT015
PROB30
TEMPO 1821/1903 5000 RA BKN014
Pas de NOTAMs connus pour ce terrain.
1 SIGMET publié pour la FIR London (EGTT) :
 
Onde orographique forte
EGTT SIGMET 10 VALID 182200/190200 EGRR
EGTT LONDON FIR SEV MTW FCST WI N5500 E00203 - N5221 E00156 - N5039 W00347 - N5218 W00357 - N5500 W00238 - N5500 E00203 FL040/240 STNR WKN=



MET'MAP, la Météo Aéronautique d'un coup d'oeil ! - Copyright ORBIFLY Décembre 2007 - Disclaimer

ORBIFLY MET'MAP TEAM :

Programmation & Développement : Alexandra Zaïnal
Conception & Développement : Baudouin d'Aumeries
Co-Programmation & Développement : Marc-Olivier Méhu
Soutien technique & logistique : Manuel Goepfert

Contact : metmap@orbifly.com




SOURCES & CREDITS :

   NOAA